sensor_id;sensor_type;location;lat;lon;timestamp;pressure;altitude;pressure_sealevel;temperature;humidity
36798;BME280;22748;8.426;99.512;2023-02-08T00:00:27;100674.09;;;28.75;59.60
36798;BME280;22748;8.426;99.512;2023-02-08T00:02:58;100681.72;;;28.71;59.63
36798;BME280;22748;8.426;99.512;2023-02-08T00:05:34;100688.78;;;28.66;59.54
36798;BME280;22748;8.426;99.512;2023-02-08T00:08:38;100698.66;;;28.59;59.84
36798;BME280;22748;8.426;99.512;2023-02-08T00:11:09;100705.09;;;28.58;59.83
36798;BME280;22748;8.426;99.512;2023-02-08T00:13:40;100697.03;;;28.51;60.06
36798;BME280;22748;8.426;99.512;2023-02-08T00:16:10;100707.78;;;28.51;60.19
36798;BME280;22748;8.426;99.512;2023-02-08T00:18:41;100715.38;;;28.47;60.42
36798;BME280;22748;8.426;99.512;2023-02-08T00:21:15;100721.78;;;28.40;60.45
36798;BME280;22748;8.426;99.512;2023-02-08T00:23:46;100727.13;;;28.33;61.04
36798;BME280;22748;8.426;99.512;2023-02-08T00:26:40;100728.75;;;28.27;61.16
36798;BME280;22748;8.426;99.512;2023-02-08T00:29:32;100739.06;;;28.24;61.42
36798;BME280;22748;8.426;99.512;2023-02-08T00:32:26;100746.88;;;28.12;61.50
36798;BME280;22748;8.426;99.512;2023-02-08T00:35:19;100751.78;;;27.95;62.52
36798;BME280;22748;8.426;99.512;2023-02-08T00:37:55;100752.25;;;28.05;62.00
36798;BME280;22748;8.426;99.512;2023-02-08T00:40:24;100750.13;;;27.94;62.67
36798;BME280;22748;8.426;99.512;2023-02-08T00:42:54;100761.72;;;28.01;62.88
36798;BME280;22748;8.426;99.512;2023-02-08T00:45:23;100761.31;;;28.04;62.35
36798;BME280;22748;8.426;99.512;2023-02-08T00:47:54;100763.19;;;28.10;62.33
36798;BME280;22748;8.426;99.512;2023-02-08T00:50:25;100762.59;;;28.15;62.48
36798;BME280;22748;8.426;99.512;2023-02-08T00:52:57;100759.28;;;28.20;62.52
36798;BME280;22748;8.426;99.512;2023-02-08T00:55:29;100763.47;;;28.22;62.97
36798;BME280;22748;8.426;99.512;2023-02-08T00:58:03;100761.78;;;28.21;62.54
36798;BME280;22748;8.426;99.512;2023-02-08T01:00:41;100775.03;;;28.23;62.68
36798;BME280;22748;8.426;99.512;2023-02-08T01:03:20;100770.69;;;28.28;63.19
36798;BME280;22748;8.426;99.512;2023-02-08T01:05:50;100770.09;;;28.33;62.98
36798;BME280;22748;8.426;99.512;2023-02-08T01:08:21;100773.00;;;28.38;62.96
36798;BME280;22748;8.426;99.512;2023-02-08T01:10:50;100774.25;;;28.42;63.25
36798;BME280;22748;8.426;99.512;2023-02-08T01:13:21;100781.09;;;28.45;63.51
36798;BME280;22748;8.426;99.512;2023-02-08T01:15:51;100779.22;;;28.45;63.56
36798;BME280;22748;8.426;99.512;2023-02-08T01:18:21;100768.13;;;28.48;63.81
36798;BME280;22748;8.426;99.512;2023-02-08T01:20:54;100779.47;;;28.50;63.30
36798;BME280;22748;8.426;99.512;2023-02-08T01:23:27;100785.06;;;28.56;63.78
36798;BME280;22748;8.426;99.512;2023-02-08T01:25:56;100790.66;;;28.61;63.88
36798;BME280;22748;8.426;99.512;2023-02-08T01:28:27;100784.25;;;28.62;63.67
36798;BME280;22748;8.426;99.512;2023-02-08T01:30:58;100789.22;;;28.65;64.02
36798;BME280;22748;8.426;99.512;2023-02-08T01:33:29;100798.72;;;28.67;64.11
36798;BME280;22748;8.426;99.512;2023-02-08T01:35:59;100793.16;;;28.69;63.64
36798;BME280;22748;8.426;99.512;2023-02-08T01:38:33;100799.16;;;28.71;63.65
36798;BME280;22748;8.426;99.512;2023-02-08T01:41:05;100798.34;;;28.70;64.19
36798;BME280;22748;8.426;99.512;2023-02-08T01:43:57;100802.47;;;28.73;64.00
36798;BME280;22748;8.426;99.512;2023-02-08T01:46:27;100806.19;;;28.79;64.30
36798;BME280;22748;8.426;99.512;2023-02-08T01:49:00;100805.78;;;28.82;63.92
36798;BME280;22748;8.426;99.512;2023-02-08T01:51:32;100805.34;;;28.78;64.36
36798;BME280;22748;8.426;99.512;2023-02-08T01:54:07;100808.28;;;28.83;64.08
36798;BME280;22748;8.426;99.512;2023-02-08T01:56:42;100809.50;;;28.87;63.75
36798;BME280;22748;8.426;99.512;2023-02-08T01:59:16;100808.91;;;28.92;64.10
36798;BME280;22748;8.426;99.512;2023-02-08T02:01:55;100814.91;;;28.94;64.06
36798;BME280;22748;8.426;99.512;2023-02-08T02:04:26;100811.63;;;28.99;63.52
36798;BME280;22748;8.426;99.512;2023-02-08T02:06:57;100812.84;;;29.03;63.43
36798;BME280;22748;8.426;99.512;2023-02-08T02:09:39;100822.38;;;29.05;63.73
36798;BME280;22748;8.426;99.512;2023-02-08T02:12:12;100822.81;;;29.09;63.33
36798;BME280;22748;8.426;99.512;2023-02-08T02:14:44;100817.41;;;29.09;63.20
36798;BME280;22748;8.426;99.512;2023-02-08T02:17:17;100822.41;;;29.12;62.76
36798;BME280;22748;8.426;99.512;2023-02-08T02:19:54;100824.03;;;29.13;62.49
36798;BME280;22748;8.426;99.512;2023-02-08T02:29:01;100829.66;;;29.18;62.70
36798;BME280;22748;8.426;99.512;2023-02-08T02:32:22;100826.53;;;29.21;62.47
36798;BME280;22748;8.426;99.512;2023-02-08T02:35:20;100825.28;;;29.24;61.85
36798;BME280;22748;8.426;99.512;2023-02-08T02:38:26;100831.09;;;29.27;62.28
36798;BME280;22748;8.426;99.512;2023-02-08T02:41:32;100829.84;;;29.30;61.55
36798;BME280;22748;8.426;99.512;2023-02-08T02:44:27;100820.34;;;29.34;61.59
36798;BME280;22748;8.426;99.512;2023-02-08T02:47:04;100822.41;;;29.39;61.28
36798;BME280;22748;8.426;99.512;2023-02-08T02:49:46;100824.03;;;29.40;61.38
36798;BME280;22748;8.426;99.512;2023-02-08T02:52:20;100827.34;;;29.42;60.80
36798;BME280;22748;8.426;99.512;2023-02-08T02:54:54;100827.97;;;29.44;61.21
36798;BME280;22748;8.426;99.512;2023-02-08T02:57:30;100826.53;;;29.48;60.67
36798;BME280;22748;8.426;99.512;2023-02-08T03:00:06;100825.06;;;29.52;60.33
36798;BME280;22748;8.426;99.512;2023-02-08T03:02:37;100831.06;;;29.54;60.44
36798;BME280;22748;8.426;99.512;2023-02-08T03:05:08;100830.66;;;29.57;60.57
36798;BME280;22748;8.426;99.512;2023-02-08T03:08:02;100823.63;;;29.63;60.08
36798;BME280;22748;8.426;99.512;2023-02-08T03:13:36;100817.59;;;29.67;60.07
36798;BME280;22748;8.426;99.512;2023-02-08T03:16:16;100812.22;;;29.67;59.78
36798;BME280;22748;8.426;99.512;2023-02-08T03:18:59;100808.09;;;29.71;59.66
36798;BME280;22748;8.426;99.512;2023-02-08T03:21:45;100802.91;;;29.77;59.45
36798;BME280;22748;8.426;99.512;2023-02-08T03:24:50;100807.44;;;29.83;59.26
36798;BME280;22748;8.426;99.512;2023-02-08T03:27:29;100801.44;;;29.87;58.82
36798;BME280;22748;8.426;99.512;2023-02-08T03:30:16;100797.69;;;29.95;59.05
36798;BME280;22748;8.426;99.512;2023-02-08T03:32:53;100797.03;;;30.00;59.08
36798;BME280;22748;8.426;99.512;2023-02-08T03:35:28;100789.16;;;29.98;58.78
36798;BME280;22748;8.426;99.512;2023-02-08T03:38:06;100789.78;;;30.00;58.79
36798;BME280;22748;8.426;99.512;2023-02-08T03:40:42;100785.44;;;30.06;58.97
36798;BME280;22748;8.426;99.512;2023-02-08T03:43:16;100785.59;;;30.11;58.67
36798;BME280;22748;8.426;99.512;2023-02-08T03:45:51;100778.97;;;30.13;58.24
36798;BME280;22748;8.426;99.512;2023-02-08T03:48:23;100781.84;;;30.19;58.00
36798;BME280;22748;8.426;99.512;2023-02-08T03:50:55;100778.31;;;30.31;58.02
36798;BME280;22748;8.426;99.512;2023-02-08T03:53:28;100766.88;;;30.36;57.80
36798;BME280;22748;8.426;99.512;2023-02-08T03:56:09;100763.91;;;30.44;57.53
36798;BME280;22748;8.426;99.512;2023-02-08T03:58:45;100763.66;;;30.52;57.43
36798;BME280;22748;8.426;99.512;2023-02-08T04:01:21;100754.72;;;30.59;57.29
36798;BME280;22748;8.426;99.512;2023-02-08T04:03:52;100759.06;;;30.60;56.91
36798;BME280;22748;8.426;99.512;2023-02-08T04:06:22;100753.22;;;30.63;56.61
36798;BME280;22748;8.426;99.512;2023-02-08T04:08:53;100745.09;;;30.69;56.56
36798;BME280;22748;8.426;99.512;2023-02-08T04:11:29;100741.94;;;30.72;56.44
36798;BME280;22748;8.426;99.512;2023-02-08T04:14:09;100739.03;;;30.74;56.30
36798;BME280;22748;8.426;99.512;2023-02-08T04:16:45;100736.34;;;30.74;56.51
36798;BME280;22748;8.426;99.512;2023-02-08T04:19:19;100732.03;;;30.73;56.04
36798;BME280;22748;8.426;99.512;2023-02-08T04:21:51;100725.56;;;30.74;56.29
36798;BME280;22748;8.426;99.512;2023-02-08T04:24:25;100723.47;;;30.76;55.48
36798;BME280;22748;8.426;99.512;2023-02-08T04:26:55;100723.22;;;30.84;55.17
36798;BME280;22748;8.426;99.512;2023-02-08T04:29:24;100713.66;;;30.88;55.64
36798;BME280;22748;8.426;99.512;2023-02-08T04:31:55;100711.13;;;30.93;55.56
36798;BME280;22748;8.426;99.512;2023-02-08T04:34:49;100709.78;;;31.03;55.14
36798;BME280;22748;8.426;99.512;2023-02-08T04:37:47;100700.22;;;31.07;55.32
36798;BME280;22748;8.426;99.512;2023-02-08T04:40:40;100701.81;;;31.14;54.59
36798;BME280;22748;8.426;99.512;2023-02-08T04:43:10;100700.94;;;31.21;54.71
36798;BME280;22748;8.426;99.512;2023-02-08T04:45:41;100690.50;;;31.24;53.72
36798;BME280;22748;8.426;99.512;2023-02-08T04:48:10;100678.22;;;31.28;53.24
36798;BME280;22748;8.426;99.512;2023-02-08T04:50:39;100676.66;;;31.21;54.10
36798;BME280;22748;8.426;99.512;2023-02-08T04:53:09;100670.56;;;31.25;53.78
36798;BME280;22748;8.426;99.512;2023-02-08T04:55:41;100663.69;;;31.29;54.36
36798;BME280;22748;8.426;99.512;2023-02-08T04:58:10;100660.06;;;31.35;53.51
36798;BME280;22748;8.426;99.512;2023-02-08T05:00:39;100655.88;;;31.40;52.97
36798;BME280;22748;8.426;99.512;2023-02-08T05:03:10;100662.50;;;31.44;53.20
36798;BME280;22748;8.426;99.512;2023-02-08T05:05:41;100658.44;;;31.53;52.75
36798;BME280;22748;8.426;99.512;2023-02-08T05:08:11;100654.41;;;31.62;53.22
36798;BME280;22748;8.426;99.512;2023-02-08T05:10:45;100645.22;;;31.63;53.15
36798;BME280;22748;8.426;99.512;2023-02-08T05:13:15;100645.22;;;31.63;52.86
36798;BME280;22748;8.426;99.512;2023-02-08T05:15:44;100649.59;;;31.64;53.30
36798;BME280;22748;8.426;99.512;2023-02-08T05:18:19;100638.53;;;31.66;53.64
36798;BME280;22748;8.426;99.512;2023-02-08T05:20:55;100635.03;;;31.65;53.47
36798;BME280;22748;8.426;99.512;2023-02-08T05:23:25;100626.47;;;31.68;53.97
36798;BME280;22748;8.426;99.512;2023-02-08T05:26:21;100624.00;;;31.67;53.64
36798;BME280;22748;8.426;99.512;2023-02-08T05:28:51;100624.59;;;31.69;53.52
36798;BME280;22748;8.426;99.512;2023-02-08T05:31:22;100619.31;;;31.62;54.21
36798;BME280;22748;8.426;99.512;2023-02-08T05:33:54;100616.22;;;31.59;53.46
36798;BME280;22748;8.426;99.512;2023-02-08T05:36:26;100611.03;;;31.57;53.24
36798;BME280;22748;8.426;99.512;2023-02-08T05:38:56;100605.34;;;31.65;52.94
36798;BME280;22748;8.426;99.512;2023-02-08T05:41:52;100601.13;;;31.69;52.72
36798;BME280;22748;8.426;99.512;2023-02-08T05:44:22;100597.75;;;31.74;52.65
36798;BME280;22748;8.426;99.512;2023-02-08T05:46:51;100596.69;;;31.75;52.74
36798;BME280;22748;8.426;99.512;2023-02-08T05:49:20;100592.72;;;31.77;52.59
36798;BME280;22748;8.426;99.512;2023-02-08T05:51:51;100587.31;;;31.77;53.11
36798;BME280;22748;8.426;99.512;2023-02-08T05:54:20;100588.50;;;31.82;52.75
36798;BME280;22748;8.426;99.512;2023-02-08T05:56:51;100584.25;;;31.86;52.63
36798;BME280;22748;8.426;99.512;2023-02-08T05:59:21;100573.03;;;31.89;52.44
36798;BME280;22748;8.426;99.512;2023-02-08T06:01:50;100571.72;;;31.91;51.73
36798;BME280;22748;8.426;99.512;2023-02-08T06:04:19;100562.34;;;31.94;51.96
36798;BME280;22748;8.426;99.512;2023-02-08T06:06:49;100561.16;;;31.90;52.23
36798;BME280;22748;8.426;99.512;2023-02-08T06:12:04;100545.84;;;32.02;51.27
36798;BME280;22748;8.426;99.512;2023-02-08T06:14:33;100538.31;;;32.04;51.12
36798;BME280;22748;8.426;99.512;2023-02-08T06:17:03;100534.09;;;32.08;50.92
36798;BME280;22748;8.426;99.512;2023-02-08T06:19:32;100530.47;;;32.14;50.41
36798;BME280;22748;8.426;99.512;2023-02-08T06:22:01;100525.06;;;32.14;50.42
36798;BME280;22748;8.426;99.512;2023-02-08T06:24:32;100528.81;;;32.13;50.60
36798;BME280;22748;8.426;99.512;2023-02-08T06:27:06;100523.19;;;32.15;50.82
36798;BME280;22748;8.426;99.512;2023-02-08T06:29:39;100511.56;;;32.14;51.18
36798;BME280;22748;8.426;99.512;2023-02-08T06:32:08;100510.72;;;32.14;50.71
36798;BME280;22748;8.426;99.512;2023-02-08T06:34:38;100511.56;;;32.14;50.96
36798;BME280;22748;8.426;99.512;2023-02-08T06:37:31;100507.78;;;32.15;50.79
36798;BME280;22748;8.426;99.512;2023-02-08T06:40:01;100508.84;;;32.14;51.20
36798;BME280;22748;8.426;99.512;2023-02-08T06:42:33;100509.44;;;32.16;51.44
36798;BME280;22748;8.426;99.512;2023-02-08T06:45:03;100500.84;;;32.20;51.12
36798;BME280;22748;8.426;99.512;2023-02-08T06:47:35;100486.06;;;32.22;51.03
36798;BME280;22748;8.426;99.512;2023-02-08T06:50:07;100490.16;;;32.25;50.88
36798;BME280;22748;8.426;99.512;2023-02-08T06:52:36;100478.91;;;32.28;51.43
36798;BME280;22748;8.426;99.512;2023-02-08T06:55:07;100476.06;;;32.23;50.85
36798;BME280;22748;8.426;99.512;2023-02-08T06:57:38;100481.81;;;32.26;49.81
36798;BME280;22748;8.426;99.512;2023-02-08T07:00:08;100475.13;;;32.29;49.70
36798;BME280;22748;8.426;99.512;2023-02-08T07:02:38;100469.25;;;32.32;49.93
36798;BME280;22748;8.426;99.512;2023-02-08T07:05:07;100471.13;;;32.31;49.95
36798;BME280;22748;8.426;99.512;2023-02-08T07:07:37;100467.59;;;32.31;49.36
36798;BME280;22748;8.426;99.512;2023-02-08T07:10:07;100463.84;;;32.32;49.25
36798;BME280;22748;8.426;99.512;2023-02-08T07:12:38;100455.16;;;32.30;49.04
36798;BME280;22748;8.426;99.512;2023-02-08T07:15:07;100446.78;;;32.31;49.86
36798;BME280;22748;8.426;99.512;2023-02-08T07:17:40;100442.34;;;32.37;49.80
36798;BME280;22748;8.426;99.512;2023-02-08T07:20:10;100444.09;;;32.43;49.66
36798;BME280;22748;8.426;99.512;2023-02-08T07:22:40;100442.06;;;32.50;49.27
36798;BME280;22748;8.426;99.512;2023-02-08T07:29:16;100433.63;;;32.58;48.22
36798;BME280;22748;8.426;99.512;2023-02-08T07:32:08;100431.97;;;32.57;47.98
36798;BME280;22748;8.426;99.512;2023-02-08T07:46:06;100407.28;;;32.66;48.72
36798;BME280;22748;8.426;99.512;2023-02-08T07:52:02;100402.34;;;32.63;48.23
36798;BME280;22748;8.426;99.512;2023-02-08T07:54:58;100394.25;;;32.63;48.20
36798;BME280;22748;8.426;99.512;2023-02-08T07:57:51;100390.16;;;32.60;48.14
36798;BME280;22748;8.426;99.512;2023-02-08T08:00:47;100390.38;;;32.58;48.45
36798;BME280;22748;8.426;99.512;2023-02-08T08:03:42;100388.03;;;32.62;48.61
36798;BME280;22748;8.426;99.512;2023-02-08T08:06:43;100377.22;;;32.62;48.79
36798;BME280;22748;8.426;99.512;2023-02-08T08:09:37;100376.03;;;32.58;49.27
36798;BME280;22748;8.426;99.512;2023-02-08T08:12:34;100372.63;;;32.63;49.27
36798;BME280;22748;8.426;99.512;2023-02-08T08:15:11;100380.59;;;32.57;49.48
36798;BME280;22748;8.426;99.512;2023-02-08T08:17:41;100368.75;;;32.58;50.03
36798;BME280;22748;8.426;99.512;2023-02-08T08:20:32;100365.34;;;32.51;49.48
36798;BME280;22748;8.426;99.512;2023-02-08T08:23:06;100368.28;;;32.50;49.52
36798;BME280;22748;8.426;99.512;2023-02-08T08:25:38;100362.63;;;32.51;50.05
36798;BME280;22748;8.426;99.512;2023-02-08T08:28:08;100362.75;;;32.56;49.81
36798;BME280;22748;8.426;99.512;2023-02-08T08:30:42;100360.53;;;32.53;49.64
36798;BME280;22748;8.426;99.512;2023-02-08T08:33:12;100356.38;;;32.63;48.75
36798;BME280;22748;8.426;99.512;2023-02-08T08:35:49;100348.38;;;32.68;48.97
36798;BME280;22748;8.426;99.512;2023-02-08T08:38:19;100350.69;;;32.76;48.81
36798;BME280;22748;8.426;99.512;2023-02-08T08:40:54;100348.06;;;32.81;48.05
36798;BME280;22748;8.426;99.512;2023-02-08T08:43:56;100344.31;;;32.82;47.95
36798;BME280;22748;8.426;99.512;2023-02-08T08:46:25;100340.88;;;32.87;47.23
36798;BME280;22748;8.426;99.512;2023-02-08T08:48:56;100343.81;;;32.85;46.79
36798;BME280;22748;8.426;99.512;2023-02-08T08:51:44;100333.81;;;32.86;46.95
36798;BME280;22748;8.426;99.512;2023-02-08T08:54:18;100341.13;;;32.85;46.86
36798;BME280;22748;8.426;99.512;2023-02-08T08:56:49;100320.88;;;32.88;47.26
36798;BME280;22748;8.426;99.512;2023-02-08T08:59:22;100332.03;;;32.91;47.05
36798;BME280;22748;8.426;99.512;2023-02-08T09:01:52;100325.06;;;32.95;46.95
36798;BME280;22748;8.426;99.512;2023-02-08T09:04:23;100323.41;;;32.94;47.32
36798;BME280;22748;8.426;99.512;2023-02-08T09:06:56;100326.47;;;32.98;47.23
36798;BME280;22748;8.426;99.512;2023-02-08T09:09:26;100323.53;;;32.99;47.43
36798;BME280;22748;8.426;99.512;2023-02-08T09:11:55;100328.94;;;32.99;47.52
36798;BME280;22748;8.426;99.512;2023-02-08T09:14:25;100322.38;;;32.95;47.84
36798;BME280;22748;8.426;99.512;2023-02-08T09:16:56;100327.78;;;32.95;47.43
36798;BME280;22748;8.426;99.512;2023-02-08T09:19:27;100327.78;;;32.95;47.80
36798;BME280;22748;8.426;99.512;2023-02-08T09:22:02;100328.81;;;32.94;47.18
36798;BME280;22748;8.426;99.512;2023-02-08T09:24:31;100326.47;;;32.98;47.05
36798;BME280;22748;8.426;99.512;2023-02-08T09:27:02;100328.09;;;32.99;47.10
36798;BME280;22748;8.426;99.512;2023-02-08T09:29:32;100323.75;;;32.98;47.41
36798;BME280;22748;8.426;99.512;2023-02-08T09:32:01;100327.84;;;33.00;47.29
36798;BME280;22748;8.426;99.512;2023-02-08T09:34:31;100329.75;;;33.00;47.31
36798;BME280;22748;8.426;99.512;2023-02-08T09:37:02;100335.50;;;33.04;47.20
36798;BME280;22748;8.426;99.512;2023-02-08T09:39:33;100328.94;;;32.99;47.29
36798;BME280;22748;8.426;99.512;2023-02-08T09:42:18;100332.59;;;32.93;47.34
36798;BME280;22748;8.426;99.512;2023-02-08T09:45:03;100334.81;;;32.96;47.65
36798;BME280;22748;8.426;99.512;2023-02-08T09:47:41;100335.09;;;32.95;47.97
36798;BME280;22748;8.426;99.512;2023-02-08T09:50:15;100334.81;;;32.96;47.88
36798;BME280;22748;8.426;99.512;2023-02-08T09:52:57;100332.03;;;32.91;48.42
36798;BME280;22748;8.426;99.512;2023-02-08T09:55:35;100330.63;;;32.89;48.64
36798;BME280;22748;8.426;99.512;2023-02-08T09:58:19;100337.44;;;32.91;48.88
36798;BME280;22748;8.426;99.512;2023-02-08T10:00:52;100324.50;;;32.93;48.74
36798;BME280;22748;8.426;99.512;2023-02-08T10:03:30;100327.78;;;32.95;48.47
36798;BME280;22748;8.426;99.512;2023-02-08T10:06:02;100338.03;;;32.93;48.88
36798;BME280;22748;8.426;99.512;2023-02-08T10:08:35;100337.44;;;32.91;48.67
36798;BME280;22748;8.426;99.512;2023-02-08T10:11:21;100338.50;;;32.90;48.38
36798;BME280;22748;8.426;99.512;2023-02-08T10:14:21;100341.53;;;32.94;48.83
36798;BME280;22748;8.426;99.512;2023-02-08T10:17:01;100345.31;;;32.93;48.93
36798;BME280;22748;8.426;99.512;2023-02-08T10:19:48;100347.75;;;32.94;48.61
36798;BME280;22748;8.426;99.512;2023-02-08T10:22:34;100354.47;;;32.92;49.10
36798;BME280;22748;8.426;99.512;2023-02-08T10:25:26;100357.69;;;32.89;48.97
36798;BME280;22748;8.426;99.512;2023-02-08T10:28:22;100362.53;;;32.87;49.03
36798;BME280;22748;8.426;99.512;2023-02-08T10:31:01;100357.91;;;32.87;48.91
36798;BME280;22748;8.426;99.512;2023-02-08T10:33:40;100357.34;;;32.85;49.04
36798;BME280;22748;8.426;99.512;2023-02-08T10:36:17;100358.41;;;32.84;49.41
36798;BME280;22748;8.426;99.512;2023-02-08T10:38:50;100369.03;;;32.74;49.47
36798;BME280;22748;8.426;99.512;2023-02-08T10:41:31;100378.47;;;32.71;49.69
36798;BME280;22748;8.426;99.512;2023-02-08T10:47:54;100371.81;;;32.79;49.53
36798;BME280;22748;8.426;99.512;2023-02-08T10:50:34;100373.94;;;32.77;49.46
36798;BME280;22748;8.426;99.512;2023-02-08T10:53:29;100377.22;;;32.79;49.49
36798;BME280;22748;8.426;99.512;2023-02-08T10:56:36;100379.13;;;32.78;49.69
36798;BME280;22748;8.426;99.512;2023-02-08T10:59:37;100376.91;;;32.75;49.75
36798;BME280;22748;8.426;99.512;2023-02-08T11:02:21;100377.72;;;32.76;49.05
36798;BME280;22748;8.426;99.512;2023-02-08T11:05:20;100377.72;;;32.76;49.21
36798;BME280;22748;8.426;99.512;2023-02-08T11:08:26;100382.56;;;32.74;49.77
36798;BME280;22748;8.426;99.512;2023-02-08T11:11:27;100387.38;;;32.72;49.53
36798;BME280;22748;8.426;99.512;2023-02-08T11:14:15;100395.28;;;32.73;49.27
36798;BME280;22748;8.426;99.512;2023-02-08T11:20:30;100389.84;;;32.73;48.98
36798;BME280;22748;8.426;99.512;2023-02-08T11:23:25;100390.66;;;32.74;49.06
36798;BME280;22748;8.426;99.512;2023-02-08T11:26:31;100395.50;;;32.72;49.41
36798;BME280;22748;8.426;99.512;2023-02-08T11:29:04;100403.59;;;32.72;49.71
36798;BME280;22748;8.426;99.512;2023-02-08T11:31:56;100399.16;;;32.66;49.65
36798;BME280;22748;8.426;99.512;2023-02-08T11:34:31;100400.97;;;32.60;50.01
36798;BME280;22748;8.426;99.512;2023-02-08T11:37:13;100419.53;;;32.56;50.27
36798;BME280;22748;8.426;99.512;2023-02-08T11:39:45;100421.75;;;32.59;50.29
36798;BME280;22748;8.426;99.512;2023-02-08T11:42:20;100420.13;;;32.58;50.54
36798;BME280;22748;8.426;99.512;2023-02-08T11:44:53;100425.53;;;32.58;50.49
36798;BME280;22748;8.426;99.512;2023-02-08T11:47:28;100433.03;;;32.56;50.83
36798;BME280;22748;8.426;99.512;2023-02-08T11:49:59;100442.56;;;32.59;51.00
36798;BME280;22748;8.426;99.512;2023-02-08T11:52:30;100452.56;;;32.58;51.10
36798;BME280;22748;8.426;99.512;2023-02-08T11:55:13;100456.06;;;32.59;50.87
36798;BME280;22748;8.426;99.512;2023-02-08T11:57:52;100459.00;;;32.57;50.76
36798;BME280;22748;8.426;99.512;2023-02-08T12:00:26;100466.06;;;32.58;51.13
36798;BME280;22748;8.426;99.512;2023-02-08T12:02:59;100462.56;;;32.58;51.64
36798;BME280;22748;8.426;99.512;2023-02-08T12:05:37;100474.19;;;32.58;51.54
36798;BME280;22748;8.426;99.512;2023-02-08T12:08:14;100477.13;;;32.57;51.86
36798;BME280;22748;8.426;99.512;2023-02-08T12:10:58;100479.81;;;32.57;51.28
36798;BME280;22748;8.426;99.512;2023-02-08T12:13:39;100478.53;;;32.59;52.17
36798;BME280;22748;8.426;99.512;2023-02-08T12:16:29;100482.28;;;32.58;51.79
36798;BME280;22748;8.426;99.512;2023-02-08T12:19:26;100493.56;;;32.55;52.11
36798;BME280;22748;8.426;99.512;2023-02-08T12:22:05;100497.34;;;32.54;52.38
36798;BME280;22748;8.426;99.512;2023-02-08T12:24:42;100504.38;;;32.55;52.74
36798;BME280;22748;8.426;99.512;2023-02-08T12:27:31;100503.81;;;32.53;52.88
36798;BME280;22748;8.426;99.512;2023-02-08T12:30:12;100525.78;;;32.57;52.76
36798;BME280;22748;8.426;99.512;2023-02-08T12:33:17;100520.03;;;32.53;52.61
36798;BME280;22748;8.426;99.512;2023-02-08T12:36:09;100516.72;;;32.51;52.97
36798;BME280;22748;8.426;99.512;2023-02-08T12:42:10;100519.66;;;32.50;53.05
36798;BME280;22748;8.426;99.512;2023-02-08T12:45:04;100527.19;;;32.48;53.23
36798;BME280;22748;8.426;99.512;2023-02-08T12:47:50;100543.41;;;32.48;53.28
36798;BME280;22748;8.426;99.512;2023-02-08T12:50:33;100540.91;;;32.46;52.75
36798;BME280;22748;8.426;99.512;2023-02-08T12:53:10;100548.44;;;32.44;53.02
36798;BME280;22748;8.426;99.512;2023-02-08T12:55:44;100553.84;;;32.44;52.91
36798;BME280;22748;8.426;99.512;2023-02-08T12:58:25;100555.97;;;32.42;52.88
36798;BME280;22748;8.426;99.512;2023-02-08T13:00:58;100557.63;;;32.43;53.09
36798;BME280;22748;8.426;99.512;2023-02-08T13:03:37;100560.19;;;32.38;53.31
36798;BME280;22748;8.426;99.512;2023-02-08T13:06:19;100567.72;;;32.36;53.31
36798;BME280;22748;8.426;99.512;2023-02-08T13:08:53;100574.78;;;32.37;52.99
36798;BME280;22748;8.426;99.512;2023-02-08T13:11:33;100572.06;;;32.37;53.07
36798;BME280;22748;8.426;99.512;2023-02-08T13:14:10;100584.28;;;32.39;53.03
36798;BME280;22748;8.426;99.512;2023-02-08T13:16:45;100585.09;;;32.40;53.22
36798;BME280;22748;8.426;99.512;2023-02-08T13:19:27;100586.75;;;32.41;53.15
36798;BME280;22748;8.426;99.512;2023-02-08T13:22:03;100586.75;;;32.41;53.06
36798;BME280;22748;8.426;99.512;2023-02-08T13:24:35;100591.09;;;32.42;53.54
36798;BME280;22748;8.426;99.512;2023-02-08T13:27:05;100592.97;;;32.42;53.54
36798;BME280;22748;8.426;99.512;2023-02-08T13:29:36;100597.56;;;32.41;53.43
36798;BME280;22748;8.426;99.512;2023-02-08T13:32:15;100601.09;;;32.42;53.84
36798;BME280;22748;8.426;99.512;2023-02-08T13:34:48;100597.19;;;32.37;53.81
36798;BME280;22748;8.426;99.512;2023-02-08T13:37:23;100597.69;;;32.34;54.17
36798;BME280;22748;8.426;99.512;2023-02-08T13:40:03;100605.19;;;32.32;54.42
36798;BME280;22748;8.426;99.512;2023-02-08T13:42:37;100589.00;;;32.32;54.24
36798;BME280;22748;8.426;99.512;2023-02-08T13:52:50;100618.81;;;32.26;54.36
36798;BME280;22748;8.426;99.512;2023-02-08T13:55:41;100618.00;;;32.25;54.66
36798;BME280;22748;8.426;99.512;2023-02-08T14:02:56;100626.94;;;32.26;54.93
36798;BME280;22748;8.426;99.512;2023-02-08T14:05:50;100637.50;;;32.27;54.98
36798;BME280;22748;8.426;99.512;2023-02-08T14:18:54;100651.56;;;32.17;55.09
36798;BME280;22748;8.426;99.512;2023-02-08T14:21:36;100661.78;;;32.15;55.32
36798;BME280;22748;8.426;99.512;2023-02-08T14:34:25;100675.41;;;32.09;55.31
36798;BME280;22748;8.426;99.512;2023-02-08T14:37:30;100679.16;;;32.08;55.39
36798;BME280;22748;8.426;99.512;2023-02-08T14:43:30;100682.09;;;32.06;55.65
36798;BME280;22748;8.426;99.512;2023-02-08T14:49:09;100695.59;;;32.06;55.54
36798;BME280;22748;8.426;99.512;2023-02-08T14:51:43;100688.31;;;32.07;55.77
36798;BME280;22748;8.426;99.512;2023-02-08T14:54:44;100703.69;;;32.06;56.03
36798;BME280;22748;8.426;99.512;2023-02-08T14:57:25;100715.78;;;32.04;55.58
36798;BME280;22748;8.426;99.512;2023-02-08T15:00:00;100719.53;;;32.03;55.74
36798;BME280;22748;8.426;99.512;2023-02-08T15:02:29;100717.91;;;32.02;55.99
36798;BME280;22748;8.426;99.512;2023-02-08T15:05:02;100715.41;;;32.00;55.81